createdAt,value
2017-07-30T00:00:14.885Z,1000.0
2017-07-30T00:01:16.297Z,999.7
2017-07-30T00:02:17.725Z,999.6
2017-07-30T00:03:19.365Z,999.5
2017-07-30T00:04:20.769Z,999.3
2017-07-30T00:05:22.176Z,999.1
2017-07-30T00:06:23.688Z,999.0
2017-07-30T00:07:25.121Z,998.9
2017-07-30T00:08:26.516Z,998.8
2017-07-30T00:09:28.014Z,998.7
2017-07-30T00:10:29.412Z,998.6
2017-07-30T00:11:30.819Z,998.5
2017-07-30T00:12:32.329Z,998.6
2017-07-30T00:13:33.737Z,998.5
2017-07-30T00:14:35.203Z,998.5
2017-07-30T00:15:36.934Z,998.5
2017-07-30T00:16:38.343Z,998.5
2017-07-30T00:17:39.747Z,998.6
2017-07-30T00:18:41.379Z,998.6
2017-07-30T00:19:42.793Z,998.6
2017-07-30T00:20:44.198Z,998.6
2017-07-30T00:21:45.716Z,998.6
2017-07-30T00:22:47.152Z,998.5
2017-07-30T00:23:48.786Z,998.5
2017-07-30T00:24:50.189Z,998.5
2017-07-30T00:25:51.667Z,998.5
2017-07-30T00:26:53.071Z,998.5
2017-07-30T00:27:54.547Z,998.6
2017-07-30T00:28:55.956Z,998.6
2017-07-30T00:29:57.427Z,998.7
2017-07-30T00:30:58.835Z,998.7
2017-07-30T00:32:00.314Z,998.8
2017-07-30T00:33:01.715Z,998.7
2017-07-30T00:34:03.187Z,998.8
2017-07-30T00:35:04.595Z,998.8
2017-07-30T00:36:06.091Z,998.7
2017-07-30T00:37:07.492Z,998.7
2017-07-30T00:38:09.158Z,998.7
2017-07-30T00:39:10.559Z,998.7
2017-07-30T00:40:11.991Z,998.7
2017-07-30T00:41:13.517Z,998.7
2017-07-30T00:42:14.923Z,998.6
2017-07-30T00:43:16.343Z,998.6
2017-07-30T00:44:18.005Z,998.6
2017-07-30T00:45:19.412Z,998.6
2017-07-30T00:46:20.810Z,998.6
2017-07-30T00:47:22.325Z,998.6
2017-07-30T00:48:23.765Z,998.5
2017-07-30T00:49:25.412Z,998.5
2017-07-30T00:50:26.827Z,998.4
2017-07-30T00:51:28.252Z,998.4
2017-07-30T00:52:29.733Z,998.4
2017-07-30T00:53:31.215Z,998.3
2017-07-30T00:54:32.618Z,998.3
2017-07-30T00:55:34.257Z,998.3
2017-07-30T00:56:35.660Z,998.2
2017-07-30T00:57:37.106Z,998.2
2017-07-30T00:58:38.574Z,998.2
2017-07-30T00:59:39.980Z,998.1
2017-07-30T01:00:41.381Z,998.1
2017-07-30T01:01:42.896Z,998.1
2017-07-30T01:02:44.304Z,998.1
2017-07-30T01:03:45.777Z,998.0
2017-07-30T01:04:47.187Z,998.0
2017-07-30T01:05:48.663Z,998.0
2017-07-30T01:06:50.088Z,998.0
2017-07-30T01:07:51.758Z,998.0
2017-07-30T01:08:53.159Z,998.0
2017-07-30T01:09:54.632Z,998.0
2017-07-30T01:10:56.039Z,998.0
2017-07-30T01:11:57.505Z,998.1
2017-07-30T01:12:58.909Z,998.1
2017-07-30T01:14:00.386Z,998.2
2017-07-30T01:15:01.795Z,998.2
2017-07-30T01:16:03.268Z,998.3
2017-07-30T01:17:04.682Z,998.3
2017-07-30T01:18:06.145Z,998.3
2017-07-30T01:19:07.556Z,998.4
2017-07-30T01:20:09.028Z,998.5
2017-07-30T01:21:10.434Z,998.6
2017-07-30T01:22:11.903Z,998.6
2017-07-30T01:23:13.318Z,998.7
2017-07-30T01:24:14.782Z,998.7
2017-07-30T01:25:16.193Z,998.8
2017-07-30T01:26:17.980Z,998.8
2017-07-30T01:27:19.394Z,998.8
2017-07-30T01:28:20.924Z,998.8
2017-07-30T01:29:22.365Z,998.8
2017-07-30T01:30:23.842Z,998.9
2017-07-30T01:31:25.272Z,998.8
2017-07-30T01:32:26.722Z,998.9
2017-07-30T01:33:28.125Z,998.9
2017-07-30T01:34:29.602Z,998.9
2017-07-30T01:35:31.002Z,998.9
2017-07-30T01:36:32.444Z,998.9
2017-07-30T01:37:33.923Z,998.9
2017-07-30T01:38:35.344Z,999.0
2017-07-30T01:39:36.766Z,999.0
2017-07-30T01:40:38.354Z,999.0
2017-07-30T01:41:39.755Z,998.9
2017-07-30T01:42:41.157Z,998.9
2017-07-30T01:43:42.804Z,998.9
2017-07-30T01:44:44.208Z,998.9
2017-07-30T01:45:45.625Z,998.9
2017-07-30T01:46:47.093Z,998.9
2017-07-30T01:47:48.494Z,998.9
2017-07-30T01:48:49.963Z,998.9
2017-07-30T01:49:51.377Z,998.9
2017-07-30T01:50:52.856Z,998.9
2017-07-30T01:51:54.259Z,999.0
2017-07-30T01:52:55.665Z,999.0
2017-07-30T01:53:57.175Z,999.0
2017-07-30T01:54:58.584Z,999.0
2017-07-30T01:55:59.980Z,999.1
2017-07-30T01:57:01.495Z,999.1
2017-07-30T01:58:02.936Z,999.2
2017-07-30T01:59:04.340Z,999.1
2017-07-30T02:00:05.832Z,999.2
2017-07-30T02:01:07.236Z,999.2
2017-07-30T02:02:08.639Z,999.2
2017-07-30T02:03:10.138Z,999.3
2017-07-30T02:04:11.584Z,999.3
2017-07-30T02:05:13.293Z,999.4
2017-07-30T02:06:14.704Z,999.4
2017-07-30T02:07:16.119Z,999.4
2017-07-30T02:08:17.747Z,999.4
2017-07-30T02:09:19.155Z,999.5
2017-07-30T02:10:20.552Z,999.5
2017-07-30T02:11:22.069Z,999.5
2017-07-30T02:12:23.470Z,999.5
2017-07-30T02:13:24.947Z,999.5
2017-07-30T02:14:26.374Z,999.5
2017-07-30T02:15:27.831Z,999.5
2017-07-30T02:16:29.248Z,999.5
2017-07-30T02:17:30.648Z,999.5
2017-07-30T02:18:32.186Z,999.5
2017-07-30T02:19:33.602Z,999.5
2017-07-30T02:20:35.001Z,999.5
2017-07-30T02:21:36.604Z,999.5
2017-07-30T02:22:38.018Z,999.6
2017-07-30T02:23:39.556Z,999.5
2017-07-30T02:24:40.958Z,999.5
2017-07-30T02:25:42.447Z,999.5
2017-07-30T02:26:43.884Z,999.6
2017-07-30T02:27:45.518Z,999.6
2017-07-30T02:28:46.960Z,999.6
2017-07-30T02:29:48.403Z,999.6
2017-07-30T02:30:49.805Z,999.6
2017-07-30T02:31:51.282Z,999.6
2017-07-30T02:32:52.683Z,999.6
2017-07-30T02:33:54.183Z,999.7
2017-07-30T02:34:55.614Z,999.7
2017-07-30T02:35:57.082Z,999.8
2017-07-30T02:36:58.489Z,999.8
2017-07-30T02:38:00.136Z,999.8
2017-07-30T02:39:01.539Z,999.8
2017-07-30T02:40:03.013Z,999.9
2017-07-30T02:41:04.437Z,999.9
2017-07-30T02:42:05.836Z,1000.0
2017-07-30T02:43:07.415Z,1000.0
2017-07-30T02:44:08.809Z,1000.0
2017-07-30T02:45:10.219Z,1000.1
2017-07-30T02:46:11.861Z,1000.1
2017-07-30T02:47:13.272Z,1000.1
2017-07-30T02:48:14.706Z,1000.2
2017-07-30T02:49:16.179Z,1000.3
2017-07-30T02:50:17.600Z,1000.3
2017-07-30T02:51:19.060Z,1000.3
2017-07-30T02:52:20.465Z,1000.3
2017-07-30T02:53:21.942Z,1000.3
2017-07-30T02:54:23.346Z,1000.4
2017-07-30T02:55:24.820Z,1000.5
2017-07-30T02:56:26.229Z,1000.5
2017-07-30T02:57:27.701Z,1000.6
2017-07-30T02:58:29.108Z,1000.7
2017-07-30T02:59:30.580Z,1000.7
2017-07-30T03:00:32.017Z,1000.8
2017-07-30T03:01:33.575Z,1000.8
2017-07-30T03:02:34.970Z,1000.9
2017-07-30T03:03:36.547Z,1000.9
2017-07-30T03:04:37.952Z,1001.0
2017-07-30T03:05:39.433Z,1001.0
2017-07-30T03:06:40.842Z,1001.0
2017-07-30T03:07:42.241Z,1001.0
2017-07-30T03:08:43.644Z,1001.0
2017-07-30T03:09:45.050Z,1001.0
2017-07-30T03:10:46.629Z,1001.0
2017-07-30T03:11:48.144Z,1000.9
2017-07-30T03:12:49.714Z,1001.0
2017-07-30T03:13:51.142Z,1000.9
2017-07-30T03:14:52.595Z,1000.9
2017-07-30T03:15:54.025Z,1001.0
2017-07-30T03:16:55.495Z,1001.1
2017-07-30T03:17:56.891Z,1001.1
2017-07-30T03:18:58.297Z,1001.0
2017-07-30T03:19:59.794Z,1000.9
2017-07-30T03:21:01.197Z,1000.9
2017-07-30T03:22:02.600Z,1000.7
2017-07-30T03:23:04.222Z,1000.7
2017-07-30T03:24:05.652Z,1000.7
2017-07-30T03:25:07.208Z,1000.6
2017-07-30T03:26:08.611Z,1000.6
2017-07-30T03:27:10.116Z,1000.5
2017-07-30T03:28:11.558Z,1000.5
2017-07-30T03:29:12.966Z,1000.4
2017-07-30T03:30:14.412Z,1000.5
2017-07-30T03:31:15.821Z,1000.4
2017-07-30T03:32:17.226Z,1000.4
2017-07-30T03:33:18.841Z,1000.4
2017-07-30T03:34:20.248Z,1000.3
2017-07-30T03:35:21.811Z,1000.3
2017-07-30T03:36:23.243Z,1000.3
2017-07-30T03:37:24.829Z,1000.3
2017-07-30T03:38:26.200Z,1000.2
2017-07-30T03:39:27.910Z,1000.2
2017-07-30T03:40:29.289Z,1000.2
2017-07-30T03:41:30.870Z,1000.2
2017-07-30T03:42:32.269Z,1000.3
2017-07-30T03:43:33.754Z,1000.4
2017-07-30T03:44:35.155Z,1000.4
2017-07-30T03:45:36.741Z,1000.4
2017-07-30T03:46:38.150Z,1000.4
2017-07-30T03:47:39.817Z,1000.4
2017-07-30T03:48:41.224Z,1000.4
2017-07-30T03:49:42.910Z,1000.4
2017-07-30T03:50:44.356Z,1000.5
2017-07-30T03:51:45.990Z,1000.5
2017-07-30T03:52:47.425Z,1000.5
2017-07-30T03:53:48.827Z,1000.5
2017-07-30T03:54:50.514Z,1000.4
2017-07-30T03:55:51.921Z,1000.4
2017-07-30T03:56:53.327Z,1000.4
2017-07-30T03:57:55.873Z,1000.4
2017-07-30T03:58:57.299Z,1000.5
2017-07-30T03:59:58.945Z,1000.5
2017-07-30T04:01:00.361Z,1000.4
2017-07-30T04:02:02.029Z,1000.4
2017-07-30T04:03:03.471Z,1000.4
2017-07-30T04:04:05.130Z,1000.4
2017-07-30T04:05:06.514Z,1000.4
2017-07-30T04:06:08.199Z,1000.4
2017-07-30T04:07:09.601Z,1000.4
2017-07-30T04:08:11.327Z,1000.4
2017-07-30T04:09:12.688Z,1000.4
2017-07-30T04:10:14.409Z,1000.4
2017-07-30T04:11:15.820Z,1000.4
2017-07-30T04:12:17.462Z,1000.4
2017-07-30T04:13:18.870Z,1000.5
2017-07-30T04:14:20.536Z,1000.4
2017-07-30T04:15:21.980Z,1000.4
2017-07-30T04:16:23.626Z,1000.4
2017-07-30T04:17:25.036Z,1000.3
2017-07-30T04:18:26.710Z,1000.3
2017-07-30T04:19:28.223Z,1000.3
2017-07-30T04:20:29.704Z,1000.3
2017-07-30T04:21:31.168Z,1000.3
2017-07-30T04:22:32.908Z,1000.3
2017-07-30T04:23:34.332Z,1000.3
2017-07-30T04:24:35.989Z,1000.3
2017-07-30T04:25:37.394Z,1000.3
2017-07-30T04:26:39.050Z,1000.4
2017-07-30T04:27:40.476Z,1000.4
2017-07-30T04:28:43.165Z,1000.4
2017-07-30T04:29:44.605Z,1000.5
2017-07-30T04:30:46.249Z,1000.5
2017-07-30T04:31:47.661Z,1000.5
2017-07-30T04:32:49.360Z,1000.6
2017-07-30T04:33:50.759Z,1000.6
2017-07-30T04:34:52.196Z,1000.6
2017-07-30T04:35:53.866Z,1000.6
2017-07-30T04:36:55.266Z,1000.6
2017-07-30T04:37:56.691Z,1000.6
2017-07-30T04:38:58.388Z,1000.7
2017-07-30T04:39:59.833Z,1000.6
2017-07-30T04:41:01.473Z,1000.6
2017-07-30T04:42:02.921Z,1000.6
2017-07-30T04:43:04.575Z,1000.7
2017-07-30T04:44:05.987Z,1000.7
2017-07-30T04:45:07.643Z,1000.7
2017-07-30T04:46:09.057Z,1000.7
2017-07-30T04:47:10.748Z,1000.8
2017-07-30T04:48:12.160Z,1000.8
2017-07-30T04:49:13.573Z,1000.8
2017-07-30T04:50:15.258Z,1000.8
2017-07-30T04:51:16.674Z,1000.8
2017-07-30T04:52:18.169Z,1000.8
2017-07-30T04:53:19.805Z,1000.8
2017-07-30T04:54:21.247Z,1000.8
2017-07-30T04:55:22.864Z,1000.9
2017-07-30T04:56:24.275Z,1000.9
2017-07-30T04:57:25.976Z,1001.1
2017-07-30T04:58:27.368Z,1001.2
2017-07-30T04:59:29.044Z,1001.4
2017-07-30T05:00:30.452Z,1001.4
2017-07-30T05:01:32.149Z,1001.5
2017-07-30T05:02:33.559Z,1001.6
2017-07-30T05:03:35.211Z,1001.8
2017-07-30T05:04:36.610Z,1001.8
2017-07-30T05:05:38.039Z,1001.9
2017-07-30T05:06:39.750Z,1001.9
2017-07-30T05:07:41.156Z,1002.1
2017-07-30T05:08:42.580Z,1002.2
2017-07-30T05:09:44.258Z,1002.2
2017-07-30T05:10:45.744Z,1002.3
2017-07-30T05:11:47.423Z,1002.3
2017-07-30T05:12:48.847Z,1002.4
2017-07-30T05:13:50.464Z,1002.5
2017-07-30T05:14:51.859Z,1002.5
2017-07-30T05:15:53.514Z,1002.5
2017-07-30T05:16:54.918Z,1002.6
2017-07-30T05:17:57.629Z,1002.7
2017-07-30T05:18:59.051Z,1002.7
2017-07-30T05:20:00.706Z,1002.7
2017-07-30T05:21:02.115Z,1002.7
2017-07-30T05:22:03.798Z,1002.8
2017-07-30T05:23:05.200Z,1002.9
2017-07-30T05:24:06.846Z,1002.9
2017-07-30T05:25:08.586Z,1002.9
2017-07-30T05:26:09.989Z,1003.0
2017-07-30T05:27:11.402Z,1003.0
2017-07-30T05:28:13.048Z,1003.0
2017-07-30T05:29:14.460Z,1003.0
2017-07-30T05:30:15.877Z,1003.1
2017-07-30T05:31:17.614Z,1003.2
2017-07-30T05:32:19.564Z,1003.3
2017-07-30T05:33:20.978Z,1003.3
2017-07-30T05:34:22.802Z,1003.4
2017-07-30T05:35:24.211Z,1003.6
2017-07-30T05:36:25.847Z,1003.7
2017-07-30T05:37:27.255Z,1003.7
2017-07-30T05:38:28.889Z,1003.8
2017-07-30T05:39:30.328Z,1003.9
2017-07-30T05:40:31.739Z,1003.9
2017-07-30T05:41:33.914Z,1004.1
2017-07-30T05:42:35.285Z,1004.0
2017-07-30T05:43:36.695Z,1004.0
2017-07-30T05:44:38.374Z,1004.1
2017-07-30T05:45:39.760Z,1004.1
2017-07-30T05:46:41.178Z,1004.1
2017-07-30T05:47:43.180Z,1004.1
2017-07-30T05:48:44.587Z,1004.1
2017-07-30T05:49:46.000Z,1004.1
2017-07-30T05:50:47.809Z,1004.1
2017-07-30T05:51:49.219Z,1004.2
2017-07-30T05:52:50.628Z,1004.3
2017-07-30T05:53:52.200Z,1004.3
2017-07-30T05:54:53.566Z,1004.3
2017-07-30T05:55:54.998Z,1004.4
2017-07-30T05:56:56.661Z,1004.4
2017-07-30T05:57:58.071Z,1004.5
2017-07-30T05:58:59.482Z,1004.6
2017-07-30T06:00:01.102Z,1004.6
2017-07-30T06:01:02.540Z,1004.6
2017-07-30T06:02:04.106Z,1004.7
2017-07-30T06:03:05.516Z,1004.6
2017-07-30T06:04:07.178Z,1004.7
2017-07-30T06:05:08.577Z,1004.8
2017-07-30T06:06:10.253Z,1004.8
2017-07-30T06:07:11.661Z,1004.9
2017-07-30T06:08:13.366Z,1005.0
2017-07-30T06:09:14.764Z,1005.2
2017-07-30T06:10:16.177Z,1005.4
2017-07-30T06:11:17.848Z,1005.6
2017-07-30T06:12:19.263Z,1005.7
2017-07-30T06:13:20.681Z,1005.9
2017-07-30T06:14:22.370Z,1005.9
2017-07-30T06:15:23.811Z,1005.7
2017-07-30T06:16:25.454Z,1005.7
2017-07-30T06:17:26.859Z,1005.7
2017-07-30T06:18:28.543Z,1006.1
2017-07-30T06:19:29.954Z,1006.3
2017-07-30T06:20:31.413Z,1006.5
2017-07-30T06:21:33.066Z,1006.6
2017-07-30T06:22:34.486Z,1006.7
2017-07-30T06:23:35.901Z,1006.6
2017-07-30T06:24:37.594Z,1006.6
2017-07-30T06:25:38.999Z,1006.7
2017-07-30T06:26:40.422Z,1006.9
2017-07-30T06:27:42.138Z,1007.0
2017-07-30T06:28:43.544Z,1007.2
2017-07-30T06:29:44.951Z,1007.3
2017-07-30T06:30:46.645Z,1007.4
2017-07-30T06:31:48.055Z,1007.6
2017-07-30T06:32:49.483Z,1007.7
2017-07-30T06:33:51.171Z,1007.8
2017-07-30T06:34:52.585Z,1008.0
2017-07-30T06:35:53.995Z,1008.1
2017-07-30T06:36:55.698Z,1008.3
2017-07-30T06:37:57.107Z,1008.5
2017-07-30T06:38:58.815Z,1008.6
2017-07-30T06:40:00.210Z,1008.7
2017-07-30T06:41:01.622Z,1008.9
2017-07-30T06:42:03.309Z,1009.0
2017-07-30T06:43:04.717Z,1009.2
2017-07-30T06:44:06.123Z,1009.4
2017-07-30T06:45:07.629Z,1009.7
2017-07-30T06:46:09.045Z,1010.0
2017-07-30T06:47:10.715Z,1010.2
2017-07-30T06:48:12.125Z,1010.4
2017-07-30T06:49:13.801Z,1010.7
2017-07-30T06:50:15.207Z,1010.8
2017-07-30T06:51:16.918Z,1011.1
2017-07-30T06:52:18.344Z,1011.2
2017-07-30T06:53:19.983Z,1011.3
2017-07-30T06:54:21.412Z,1011.3
2017-07-30T06:55:23.055Z,1011.6
2017-07-30T06:56:24.537Z,1011.8
2017-07-30T06:57:27.988Z,1011.8
2017-07-30T06:58:30.299Z,1011.9
2017-07-30T06:59:32.317Z,1012.0
2017-07-30T07:00:34.376Z,1012.1
2017-07-30T07:01:36.313Z,1012.1
2017-07-30T07:02:37.852Z,1012.1
2017-07-30T07:03:39.261Z,1012.1
2017-07-30T07:04:40.684Z,1012.2
2017-07-30T07:05:42.169Z,1012.3
2017-07-30T07:06:43.582Z,1012.5
2017-07-30T07:07:44.992Z,1012.6
2017-07-30T07:08:46.489Z,1013.0
2017-07-30T07:09:47.871Z,1013.2
2017-07-30T07:10:49.283Z,1013.4
2017-07-30T07:11:50.813Z,1013.4
2017-07-30T07:12:52.220Z,1013.3
2017-07-30T07:13:53.996Z,1013.3
2017-07-30T07:14:55.425Z,1013.1
2017-07-30T07:15:56.982Z,1013.1
2017-07-30T07:16:58.393Z,1012.9
2017-07-30T07:18:00.067Z,1012.8
2017-07-30T07:19:01.477Z,1012.7
2017-07-30T07:20:02.924Z,1012.5
2017-07-30T07:21:04.592Z,1012.4
2017-07-30T07:22:06.024Z,1012.1
2017-07-30T07:23:07.436Z,1011.9
2017-07-30T07:24:09.120Z,1011.6
2017-07-30T07:25:10.529Z,1011.4
2017-07-30T07:26:11.973Z,1011.2
2017-07-30T07:27:13.646Z,1011.0
2017-07-30T07:28:15.053Z,1010.7
2017-07-30T07:29:16.728Z,1010.6
2017-07-30T07:30:18.142Z,1010.7
2017-07-30T07:31:19.556Z,1010.9
2017-07-30T07:32:21.063Z,1011.0
2017-07-30T07:33:22.469Z,1011.2
2017-07-30T07:34:23.877Z,1011.5
2017-07-30T07:35:25.370Z,1011.6
2017-07-30T07:36:26.783Z,1011.6
2017-07-30T07:37:28.196Z,1011.5
2017-07-30T07:38:29.693Z,1011.5
2017-07-30T07:39:31.103Z,1011.4
2017-07-30T07:40:32.516Z,1011.4
2017-07-30T07:41:34.023Z,1011.2
2017-07-30T07:42:35.431Z,1010.8
2017-07-30T07:43:36.856Z,1010.8
2017-07-30T07:44:38.545Z,1011.0
2017-07-30T07:45:39.949Z,1011.7
2017-07-30T07:46:41.364Z,1011.9
2017-07-30T07:47:42.861Z,1011.8
2017-07-30T07:48:44.270Z,1011.8
2017-07-30T07:49:45.680Z,1011.9
2017-07-30T07:50:47.588Z,1011.9
2017-07-30T07:51:49.020Z,1012.2
2017-07-30T07:52:50.687Z,1012.0
2017-07-30T07:53:52.101Z,1011.7
2017-07-30T07:54:53.708Z,1011.7
2017-07-30T07:55:55.117Z,1012.2
2017-07-30T07:56:56.636Z,1012.7
2017-07-30T07:57:58.047Z,1012.6
2017-07-30T07:58:59.714Z,1012.6
2017-07-30T08:00:01.140Z,1012.9
2017-07-30T08:01:02.762Z,1013.4
2017-07-30T08:02:04.171Z,1014.1
2017-07-30T08:03:05.577Z,1014.5
2017-07-30T08:04:07.100Z,1014.4
2017-07-30T08:05:08.523Z,1014.6
2017-07-30T08:06:09.959Z,1015.2
2017-07-30T08:07:11.401Z,1015.6
2017-07-30T08:08:12.818Z,1015.7
2017-07-30T08:09:14.225Z,1015.3
2017-07-30T08:10:15.733Z,1015.1
2017-07-30T08:11:17.189Z,1015.3
2017-07-30T08:12:18.600Z,1015.7
2017-07-30T08:13:20.073Z,1016.0
2017-07-30T08:14:21.489Z,1016.1
2017-07-30T08:15:22.889Z,1015.6
2017-07-30T08:16:24.367Z,1015.4
2017-07-30T08:17:25.846Z,1015.0
2017-07-30T08:18:27.491Z,1015.2
2017-07-30T08:19:28.897Z,1015.5
2017-07-30T08:20:30.350Z,1015.4
2017-07-30T08:21:31.763Z,1015.6
2017-07-30T08:22:33.242Z,1016.8
2017-07-30T08:23:34.654Z,1016.9
2017-07-30T08:24:36.097Z,1016.7
2017-07-30T08:25:37.548Z,1016.6
2017-07-30T08:26:38.988Z,1017.6
2017-07-30T08:27:40.432Z,1018.4
2017-07-30T08:28:42.063Z,1019.0
2017-07-30T08:29:43.481Z,1019.1
2017-07-30T08:30:44.943Z,1019.1
2017-07-30T08:31:46.353Z,1020.1
2017-07-30T08:32:47.824Z,1020.1
2017-07-30T08:33:49.239Z,1019.7
2017-07-30T08:34:50.712Z,1019.5
2017-07-30T08:35:52.126Z,1019.5
2017-07-30T08:36:53.543Z,1018.9
2017-07-30T08:37:55.053Z,1018.5
2017-07-30T08:38:56.467Z,1018.2
2017-07-30T08:39:57.871Z,1017.9
2017-07-30T08:40:59.359Z,1017.6
2017-07-30T08:42:00.769Z,1017.1
2017-07-30T08:43:02.185Z,1018.4
2017-07-30T08:44:03.676Z,1019.3
2017-07-30T08:45:05.088Z,1019.3
2017-07-30T08:46:06.552Z,1019.7
2017-07-30T08:47:07.966Z,1021.4
2017-07-30T08:48:09.434Z,1021.5
2017-07-30T08:49:10.850Z,1021.1
2017-07-30T08:50:12.340Z,1023.1
2017-07-30T08:51:13.754Z,1022.8
2017-07-30T08:52:15.162Z,1022.8
2017-07-30T08:53:16.635Z,1022.2
2017-07-30T08:54:18.042Z,1021.5
2017-07-30T08:55:19.455Z,1020.9
2017-07-30T08:56:20.957Z,1020.3
2017-07-30T08:57:22.373Z,1019.9
2017-07-30T08:58:23.790Z,1019.5
2017-07-30T08:59:25.280Z,1018.9
2017-07-30T09:00:26.690Z,1018.4
2017-07-30T09:01:28.118Z,1018.0
2017-07-30T09:02:29.601Z,1017.4
2017-07-30T09:03:31.014Z,1017.0
2017-07-30T09:04:32.502Z,1016.5
2017-07-30T09:05:33.968Z,1015.9
2017-07-30T09:06:35.377Z,1015.6
2017-07-30T09:07:36.808Z,1016.4
2017-07-30T09:08:38.300Z,1017.5
2017-07-30T09:09:39.713Z,1016.9
2017-07-30T09:10:41.337Z,1020.4
2017-07-30T09:11:42.777Z,1025.2
2017-07-30T09:12:44.199Z,1027.9
2017-07-30T09:13:46.735Z,1026.8
2017-07-30T09:14:48.152Z,1026.6
2017-07-30T09:15:49.582Z,1025.6
2017-07-30T09:16:51.245Z,1032.0
2017-07-30T09:17:52.658Z,1034.7
2017-07-30T09:18:54.337Z,1041.3
2017-07-30T09:19:55.788Z,1047.9
2017-07-30T09:20:57.433Z,1041.2
2017-07-30T09:21:58.838Z,1043.8
2017-07-30T09:23:00.263Z,1041.2
2017-07-30T09:24:01.742Z,1051.7
2017-07-30T09:25:03.161Z,1053.3
2017-07-30T09:26:04.599Z,1040.3
2017-07-30T09:27:06.256Z,1038.1
2017-07-30T09:28:07.674Z,1039.1
2017-07-30T09:29:09.143Z,1043.6
2017-07-30T09:30:10.646Z,1043.1
2017-07-30T09:31:12.240Z,1041.3
2017-07-30T09:32:13.661Z,1040.5
2017-07-30T09:33:15.312Z,1047.0
2017-07-30T09:34:16.728Z,1040.1
2017-07-30T09:35:18.254Z,1041.2
2017-07-30T09:36:19.677Z,1037.5
2017-07-30T09:37:21.273Z,1035.3
2017-07-30T09:38:22.703Z,1033.3
2017-07-30T09:39:24.362Z,1032.1
2017-07-30T09:40:25.780Z,1031.5
2017-07-30T09:41:27.467Z,1031.8
2017-07-30T09:42:28.878Z,1034.3
2017-07-30T09:43:30.294Z,1035.1
2017-07-30T09:44:31.769Z,1037.2
2017-07-30T09:45:33.184Z,1037.2
2017-07-30T09:46:34.609Z,1037.1
2017-07-30T09:47:36.088Z,1037.0
2017-07-30T09:48:37.509Z,1037.9
2017-07-30T09:49:39.181Z,1038.2
2017-07-30T09:50:40.596Z,1036.6
2017-07-30T09:51:42.272Z,1035.5
2017-07-30T09:52:43.686Z,1033.9
2017-07-30T09:53:45.104Z,1033.9
2017-07-30T09:54:46.606Z,1035.2
2017-07-30T09:55:48.117Z,1034.5
2017-07-30T09:56:49.537Z,1032.5
2017-07-30T09:57:51.107Z,1030.9
2017-07-30T09:58:52.577Z,1030.4
2017-07-30T09:59:54.221Z,1028.9
2017-07-30T10:00:55.642Z,1027.5
2017-07-30T10:01:57.277Z,1028.5
2017-07-30T10:02:58.719Z,1029.0
2017-07-30T10:04:00.177Z,1030.3
2017-07-30T10:05:01.810Z,1028.6
2017-07-30T10:06:03.220Z,1027.8
2017-07-30T10:07:04.636Z,1027.4
2017-07-30T10:08:06.122Z,1027.1
2017-07-30T10:09:07.593Z,1027.9
2017-07-30T10:10:09.008Z,1026.2
2017-07-30T10:11:10.649Z,1025.6
2017-07-30T10:12:12.058Z,1024.7
2017-07-30T10:13:13.530Z,1023.5
2017-07-30T10:14:15.174Z,1023.0
2017-07-30T10:15:16.628Z,1024.7
2017-07-30T10:16:18.269Z,1046.1
2017-07-30T10:17:19.793Z,1048.0
2017-07-30T10:18:21.211Z,1030.1
2017-07-30T10:19:22.789Z,1049.1
2017-07-30T10:20:24.242Z,1038.7
2017-07-30T10:21:25.661Z,1056.2
2017-07-30T10:22:27.326Z,1038.1
2017-07-30T10:23:28.746Z,1039.5
2017-07-30T10:24:30.191Z,1037.5
2017-07-30T10:25:31.839Z,1032.8
2017-07-30T10:26:33.255Z,1031.1
2017-07-30T10:27:34.715Z,1030.2
2017-07-30T10:28:36.148Z,1028.4
2017-07-30T10:29:37.598Z,1027.7
2017-07-30T10:30:39.018Z,1053.0
2017-07-30T10:31:41.504Z,1050.9
2017-07-30T10:32:42.919Z,1049.0
2017-07-30T10:33:44.333Z,1038.3
2017-07-30T10:34:45.824Z,1045.3
2017-07-30T10:35:47.240Z,1040.0
2017-07-30T10:36:48.654Z,1037.3
2017-07-30T10:37:50.145Z,1034.3
2017-07-30T10:38:51.562Z,1031.7
2017-07-30T10:39:52.986Z,1030.0
2017-07-30T10:40:54.473Z,1028.7
2017-07-30T10:41:55.896Z,1027.7
2017-07-30T10:42:57.303Z,1026.4
2017-07-30T10:43:58.791Z,1025.7
2017-07-30T10:45:00.208Z,1024.3
2017-07-30T10:46:01.619Z,1023.1
2017-07-30T10:47:03.107Z,1023.2
2017-07-30T10:48:04.522Z,1022.0
2017-07-30T10:49:05.940Z,1020.7
2017-07-30T10:50:07.443Z,1021.6
2017-07-30T10:51:08.888Z,1021.7
2017-07-30T10:52:10.540Z,1022.0
2017-07-30T10:53:11.957Z,1022.1
2017-07-30T10:54:13.408Z,1023.9
2017-07-30T10:55:15.046Z,1025.2
2017-07-30T10:56:16.472Z,1025.5
2017-07-30T10:57:17.881Z,1025.9
2017-07-30T10:58:19.359Z,1026.3
2017-07-30T10:59:20.775Z,1026.9
2017-07-30T11:00:22.240Z,1027.5
2017-07-30T11:01:23.684Z,1027.0
2017-07-30T11:02:25.327Z,1026.1
2017-07-30T11:03:26.739Z,1025.1
2017-07-30T11:04:28.190Z,1024.2
2017-07-30T11:05:29.641Z,1022.7
2017-07-30T11:06:31.079Z,1021.5
2017-07-30T11:07:32.508Z,1021.1
2017-07-30T11:08:33.968Z,1021.7
2017-07-30T11:09:35.384Z,1022.1
2017-07-30T11:10:36.794Z,1023.5
2017-07-30T11:11:38.289Z,1024.0
2017-07-30T11:12:39.715Z,1024.9
2017-07-30T11:13:41.123Z,1027.3
2017-07-30T11:14:42.609Z,1031.6
2017-07-30T11:15:44.025Z,1034.8
2017-07-30T11:16:45.493Z,1039.8
2017-07-30T11:17:46.943Z,1046.2
2017-07-30T11:18:48.592Z,1051.8
2017-07-30T11:19:50.027Z,1057.0
2017-07-30T11:20:51.661Z,1062.7
2017-07-30T11:21:53.082Z,1064.5
2017-07-30T11:22:54.644Z,1071.7
2017-07-30T11:23:56.063Z,1074.6
2017-07-30T11:24:57.729Z,1070.0
2017-07-30T11:25:59.161Z,1073.8
2017-07-30T11:27:00.711Z,1079.2
2017-07-30T11:28:02.133Z,1080.6
2017-07-30T11:29:03.703Z,1079.7
2017-07-30T11:30:05.117Z,1072.8
2017-07-30T11:31:06.556Z,1082.7
2017-07-30T11:32:08.258Z,1085.1
2017-07-30T11:33:09.678Z,1084.5
2017-07-30T11:34:11.202Z,1079.6
2017-07-30T11:35:12.625Z,1080.7
2017-07-30T11:36:14.186Z,1074.9
2017-07-30T11:37:15.602Z,1072.0
2017-07-30T11:38:17.271Z,1079.8
2017-07-30T11:39:18.726Z,1082.2
2017-07-30T11:40:20.478Z,1084.5
2017-07-30T11:41:21.896Z,1084.6
2017-07-30T11:42:23.441Z,1086.1
2017-07-30T11:43:24.865Z,1085.1
2017-07-30T11:44:26.284Z,1083.7
2017-07-30T11:45:27.974Z,1081.1
2017-07-30T11:46:29.391Z,1082.5
2017-07-30T11:47:30.809Z,1082.7
2017-07-30T11:48:32.499Z,1082.8
2017-07-30T11:49:33.923Z,1080.3
2017-07-30T11:50:35.339Z,1079.0
2017-07-30T11:51:37.023Z,1077.7
2017-07-30T11:52:38.439Z,1075.1
2017-07-30T11:53:39.876Z,1073.8
2017-07-30T11:54:41.548Z,1075.4
2017-07-30T11:55:42.973Z,1075.4
2017-07-30T11:56:44.638Z,1074.2
2017-07-30T11:57:46.063Z,1071.3
2017-07-30T11:58:47.716Z,1068.9
2017-07-30T11:59:49.135Z,1066.3
2017-07-30T12:00:50.802Z,1064.3
2017-07-30T12:01:52.221Z,1062.2
2017-07-30T12:02:53.890Z,1058.9
2017-07-30T12:03:55.316Z,1055.4
2017-07-30T12:04:56.981Z,1051.9
2017-07-30T12:05:58.400Z,1049.4
2017-07-30T12:07:00.057Z,1046.5
2017-07-30T12:08:01.477Z,1044.1
2017-07-30T12:09:02.893Z,1041.9
2017-07-30T12:10:04.582Z,1039.7
2017-07-30T12:11:06.017Z,1037.9
2017-07-30T12:12:07.428Z,1036.1
2017-07-30T12:13:09.112Z,1034.3
2017-07-30T12:14:10.529Z,1032.3
2017-07-30T12:15:11.945Z,1030.7
2017-07-30T12:16:13.639Z,1029.3
2017-07-30T12:17:15.071Z,1028.0
2017-07-30T12:18:16.491Z,1026.5
2017-07-30T12:19:18.168Z,1025.2
2017-07-30T12:20:19.581Z,1023.8
2017-07-30T12:21:20.998Z,1022.3
2017-07-30T12:22:22.689Z,1020.7
2017-07-30T12:23:24.103Z,1019.4
2017-07-30T12:24:25.521Z,1019.1
2017-07-30T12:25:27.217Z,1019.3
2017-07-30T12:26:28.639Z,1020.2
2017-07-30T12:27:30.052Z,1020.7
2017-07-30T12:28:31.743Z,1020.1
2017-07-30T12:29:33.156Z,1019.1
2017-07-30T12:30:34.574Z,1018.5
2017-07-30T12:31:36.265Z,1017.3
2017-07-30T12:32:37.685Z,1016.2
2017-07-30T12:33:39.101Z,1015.0
2017-07-30T12:34:40.791Z,1014.7
2017-07-30T12:35:42.204Z,1014.4
2017-07-30T12:36:43.875Z,1014.4
2017-07-30T12:37:45.299Z,1014.0
2017-07-30T12:38:46.960Z,1014.2
2017-07-30T12:39:48.387Z,1014.9
2017-07-30T12:40:49.797Z,1016.5
2017-07-30T12:41:51.489Z,1017.4
2017-07-30T12:42:52.906Z,1017.6
2017-07-30T12:43:54.318Z,1017.0
2017-07-30T12:44:56.023Z,1016.0
2017-07-30T12:45:57.442Z,1014.7
2017-07-30T12:46:59.096Z,1014.0
2017-07-30T12:48:00.515Z,1013.5
2017-07-30T12:49:02.184Z,1013.2
2017-07-30T12:50:03.599Z,1012.8
2017-07-30T12:51:05.267Z,1013.0
2017-07-30T12:52:06.685Z,1013.5